Airport View

Enter AWOS ICAO identifier for current METAR.

ex. KFNL

KEFT 100306Z AUTO 04006KT 10SM -RA OVC003 20/19 A2979 RMK AO2 T02000194

10 Jul 2020 03:04

Frequency: 118.375

Phone: 608-328-8359

Other Area AWOS: KFEP - KJVL - KC29 - KMRJ

TAF AMD KMSN 100048Z 1001/1024 VRB06KT 5SM SHRA BR SCT009 OVC023 FM100400 36004KT 6SM SHRA BR OVC015 FM100600 33004KT 5SM SHRA BR OVC008 FM100900 32005KT P6SM VCSH BKN018 FM101600 31008KT P6SM SCT040